Time;durP1;ratioP1;P1;durP2;ratioP2;P2;SDS_P1;SDS_P2;PMS_P1;PMS_P2;Temp;Humidity;BMP_temperature;BMP_pressure;BME280_temperature;BME280_humidity;BME280_pressure;Samples;Min_cycle;Max_cycle;Signal;HPM_P1;HPM_P2
2022/06/16 00:05:55;;;;;;;9.87;4.10;;;20.40;67.00;;;;;;20914050;28;20697;-71
2022/06/16 00:15:58;;;;;;;4.60;3.70;;;20.30;67.50;;;;;;20913847;28;20302;-72
2022/06/16 00:25:59;;;;;;;7.33;3.73;;;20.20;68.00;;;;;;20912844;28;20240;-71
2022/06/16 00:36:01;;;;;;;6.40;4.20;;;20.00;68.80;;;;;;20912718;28;20297;-70
2022/06/16 00:46:16;;;;;;;4.80;3.73;;;19.90;69.30;;;;;;20912756;28;20276;-66
2022/06/16 00:56:20;;;;;;;3.73;3.40;;;19.90;69.70;;;;;;20913365;28;20218;-71
2022/06/16 01:06:28;;;;;;;6.40;3.77;;;19.80;70.00;;;;;;20928373;28;20700;-65
2022/06/16 01:16:36;;;;;;;3.97;3.50;;;19.70;70.50;;;;;;20928352;28;20209;-67
2022/06/16 01:27:10;;;;;;;11.57;3.80;;;19.60;70.50;;;;;;20926535;28;20238;-69
2022/06/16 01:37:42;;;;;;;5.13;4.07;;;19.50;70.70;;;;;;20926238;28;20215;-70
2022/06/16 01:47:49;;;;;;;5.17;3.57;;;19.40;71.00;;;;;;20925332;28;20249;-65
2022/06/16 01:57:59;;;;;;;4.23;3.63;;;19.30;71.60;;;;;;20924200;28;20206;-69
2022/06/16 02:08:18;;;;;;;9.87;4.03;;;19.20;72.10;;;;;;20922660;28;20237;-70
2022/06/16 02:18:28;;;;;;;6.37;4.07;;;19.10;72.80;;;;;;20923033;28;20656;-66
2022/06/16 02:28:29;;;;;;;6.97;3.83;;;19.00;73.40;;;;;;20922957;28;20296;-64
2022/06/16 02:39:04;;;;;;;6.10;4.07;;;18.80;74.00;;;;;;20920795;28;20217;-66
2022/06/16 02:49:29;;;;;;;6.00;3.70;;;18.60;74.50;;;;;;20920430;28;20592;-67
2022/06/16 02:59:49;;;;;;;5.93;3.90;;;18.40;75.00;;;;;;20922173;28;20213;-69
2022/06/16 03:09:51;;;;;;;6.67;4.10;;;18.30;75.70;;;;;;20918752;28;20634;-63
2022/06/16 03:19:53;;;;;;;4.80;4.10;;;18.30;76.30;;;;;;20916645;28;20213;-65
2022/06/16 03:29:54;;;;;;;4.10;3.70;;;18.10;77.00;;;;;;20917173;28;20233;-65
2022/06/16 03:39:56;;;;;;;5.87;4.30;;;18.00;77.40;;;;;;20916390;28;20244;-64
2022/06/16 03:49:57;;;;;;;6.10;4.23;;;18.00;78.30;;;;;;20969483;28;20707;-65
2022/06/16 03:59:59;;;;;;;4.97;4.20;;;18.00;78.70;;;;;;20926229;28;20250;-68
2022/06/16 04:10:03;;;;;;;6.40;5.27;;;18.00;79.00;;;;;;20915628;28;20268;-70
2022/06/16 04:20:14;;;;;;;6.57;4.80;;;18.00;79.30;;;;;;20913415;28;20263;-67
2022/06/16 04:30:17;;;;;;;10.27;5.03;;;18.00;79.80;;;;;;20912939;28;20238;-69
2022/06/16 04:40:19;;;;;;;6.43;5.00;;;18.10;80.10;;;;;;20912068;28;20245;-63
2022/06/16 04:50:22;;;;;;;5.47;4.90;;;18.10;80.30;;;;;;20911718;28;20291;-71
2022/06/16 05:00:24;;;;;;;7.03;4.63;;;18.30;80.50;;;;;;20911696;28;20206;-70
2022/06/16 05:10:26;;;;;;;7.53;4.93;;;18.50;80.70;;;;;;20911020;28;20216;-68
2022/06/16 05:20:28;;;;;;;7.13;5.87;;;18.50;80.40;;;;;;20910585;28;20260;-63
2022/06/16 05:30:30;;;;;;;8.50;6.03;;;18.70;80.50;;;;;;20910877;28;20267;-64
2022/06/16 05:40:32;;;;;;;6.83;5.00;;;18.90;80.40;;;;;;20913838;28;20240;-67
2022/06/16 05:50:33;;;;;;;5.83;5.23;;;19.10;80.20;;;;;;20925653;28;20613;-71
2022/06/16 06:00:35;;;;;;;12.70;5.67;;;19.40;80.20;;;;;;20924579;28;20715;-64
2022/06/16 06:21:01;;;;;;;6.07;5.40;;;19.80;78.80;;;;;;20922631;28;20704;-65
2022/06/16 06:31:03;;;;;;;8.70;4.90;;;19.90;78.10;;;;;;20922170;28;20216;-61
2022/06/16 06:41:06;;;;;;;9.70;5.20;;;20.20;77.60;;;;;;20919416;28;20235;-65
2022/06/16 06:51:08;;;;;;;5.93;5.00;;;20.40;77.10;;;;;;20919650;28;20222;-66
2022/06/16 07:01:09;;;;;;;10.87;5.00;;;20.70;75.90;;;;;;20920662;28;20290;-65
2022/06/16 07:11:12;;;;;;;5.10;4.60;;;21.00;75.30;;;;;;20919002;28;20208;-63
2022/06/16 07:21:15;;;;;;;8.67;6.67;;;21.30;74.10;;;;;;20918543;28;20231;-63
2022/06/16 07:31:18;;;;;;;9.43;5.97;;;21.80;73.30;;;;;;20917576;28;20208;-62
2022/06/16 07:41:36;;;;;;;10.27;4.83;;;22.10;71.50;;;;;;20916531;28;20745;-64
2022/06/16 07:51:39;;;;;;;7.57;5.07;;;22.40;70.90;;;;;;20915782;28;20214;-67
2022/06/16 08:01:44;;;;;;;8.10;6.17;;;22.70;69.90;;;;;;20915669;28;20228;-63
2022/06/16 08:12:04;;;;;;;8.37;4.87;;;22.80;69.80;;;;;;20914009;28;20333;-73
2022/06/16 08:22:06;;;;;;;7.33;4.70;;;23.10;69.10;;;;;;20913395;28;20322;-62
2022/06/16 08:32:09;;;;;;;9.87;5.10;;;23.30;67.70;;;;;;20938107;28;20218;-63
2022/06/16 08:42:25;;;;;;;8.10;3.83;;;23.50;66.80;;;;;;20934709;28;20301;-68
2022/06/16 08:53:06;;;;;;;6.60;4.93;;;23.80;65.40;;;;;;20916924;28;20287;-65
2022/06/16 09:03:14;;;;;;;6.47;3.90;;;24.20;64.30;;;;;;20881777;28;20232;-64
2022/06/16 09:14:00;;;;;;;11.23;5.17;;;24.40;63.70;;;;;;20830429;28;20629;-65
2022/06/16 09:24:32;;;;;;;4.80;3.97;;;24.70;63.50;;;;;;20841666;28;20781;-63
2022/06/16 09:34:55;;;;;;;6.23;3.93;;;25.00;62.90;;;;;;20844692;28;20262;-67
2022/06/16 09:45:17;;;;;;;6.53;4.10;;;25.20;62.20;;;;;;20843142;28;20244;-63
2022/06/16 09:55:26;;;;;;;7.13;4.10;;;25.40;61.60;;;;;;20836849;28;20258;-74
2022/06/16 10:05:48;;;;;;;5.40;3.60;;;25.50;61.10;;;;;;20843018;28;20243;-68
2022/06/16 10:15:59;;;;;;;3.97;3.30;;;25.80;60.70;;;;;;20842474;28;20217;-68
2022/06/16 10:26:05;;;;;;;7.40;3.40;;;25.90;58.50;;;;;;20842684;28;20298;-64
2022/06/16 10:36:16;;;;;;;5.33;3.30;;;26.10;57.50;;;;;;20849408;28;20213;-65
2022/06/16 10:46:27;;;;;;;6.70;3.73;;;26.20;55.40;;;;;;20849356;28;20290;-66
2022/06/16 10:56:29;;;;;;;5.93;3.10;;;26.30;54.50;;;;;;20866837;28;20205;-66
2022/06/16 11:06:31;;;;;;;5.53;3.17;;;26.40;53.20;;;;;;20849295;28;20236;-70
2022/06/16 11:16:37;;;;;;;7.83;3.50;;;26.40;52.10;;;;;;20842559;28;20730;-67
2022/06/16 11:26:43;;;;;;;6.50;3.77;;;26.50;52.10;;;;;;20841927;28;20235;-71
2022/06/16 11:37:05;;;;;;;5.53;3.53;;;26.70;51.60;;;;;;20840901;28;20216;-69
2022/06/16 11:47:07;;;;;;;5.73;3.20;;;26.80;50.10;;;;;;20846887;28;20240;-66
2022/06/16 11:57:27;;;;;;;8.07;3.30;;;26.90;49.60;;;;;;20843852;28;20201;-66
2022/06/16 12:07:47;;;;;;;5.83;3.00;;;27.10;49.00;;;;;;20848288;28;20240;-73
2022/06/16 12:18:16;;;;;;;9.40;3.05;;;27.40;49.00;;;;;;20846388;28;20208;-66
2022/06/16 12:28:39;;;;;;;7.55;2.97;;;27.70;49.10;;;;;;20836209;28;20572;-71
2022/06/16 12:38:49;;;;;;;9.05;4.40;;;27.80;48.90;;;;;;20831800;28;20208;-72
2022/06/16 12:48:57;;;;;;;6.72;3.10;;;27.90;48.70;;;;;;20830374;28;20307;-70
2022/06/16 12:59:24;;;;;;;9.15;4.28;;;27.70;48.30;;;;;;20827752;28;20216;-74
2022/06/16 13:09:27;;;;;;;7.55;3.95;;;27.70;47.70;;;;;;20829061;28;20236;-68
2022/06/16 13:19:50;;;;;;;3.67;3.13;;;27.60;47.00;;;;;;20828932;28;20205;-67
2022/06/16 13:29:55;;;;;;;5.15;3.47;;;27.60;47.00;;;;;;20830443;28;20645;-79
2022/06/16 13:40:14;;;;;;;4.17;3.43;;;27.70;46.60;;;;;;20887553;28;20530;-67
2022/06/16 13:50:21;;;;;;;7.97;2.93;;;27.70;46.50;;;;;;20828191;28;20632;-69
2022/06/16 14:00:33;;;;;;;3.83;2.30;;;27.80;45.00;;;;;;20827708;28;20212;-68
2022/06/16 14:10:45;;;;;;;3.28;2.35;;;27.70;43.60;;;;;;20839457;28;20248;-68
2022/06/16 14:20:50;;;;;;;3.05;2.03;;;27.80;42.50;;;;;;20840835;28;20213;-72
2022/06/16 14:31:01;;;;;;;2.97;2.00;;;27.80;39.80;;;;;;20840512;28;20288;-73
2022/06/16 14:41:40;;;;;;;4.75;2.60;;;27.90;39.00;;;;;;20839000;28;20603;-73
2022/06/16 14:51:45;;;;;;;3.03;2.50;;;27.90;39.40;;;;;;20836981;28;20204;-67
2022/06/16 15:01:49;;;;;;;9.27;3.20;;;28.10;40.40;;;;;;20837682;28;20279;-74
2022/06/16 15:11:54;;;;;;;6.78;2.85;;;28.20;40.70;;;;;;20837041;28;20712;-66
2022/06/16 15:21:59;;;;;;;3.97;2.20;;;28.20;40.50;;;;;;20834788;28;20794;-68
2022/06/16 15:32:02;;;;;;;3.60;2.28;;;28.20;39.20;;;;;;20835226;28;20215;-71
2022/06/16 15:42:08;;;;;;;5.22;2.33;;;28.00;38.10;;;;;;20835263;28;20653;-66
2022/06/16 15:52:18;;;;;;;2.85;2.10;;;28.20;37.70;;;;;;20833584;28;20300;-68
2022/06/16 16:02:22;;;;;;;6.07;2.15;;;28.90;37.10;;;;;;20832918;28;20232;-67
2022/06/16 16:12:28;;;;;;;3.58;2.15;;;29.80;37.00;;;;;;20832520;28;20555;-66
2022/06/16 16:22:30;;;;;;;3.42;2.28;;;30.60;36.30;;;;;;20849198;28;20306;-73
2022/06/16 16:32:34;;;;;;;4.32;2.28;;;30.40;36.90;;;;;;20831982;28;20221;-69
2022/06/16 16:43:00;;;;;;;4.65;2.78;;;29.00;38.00;;;;;;20831053;28;20327;-69
2022/06/16 16:53:34;;;;;;;2.80;2.05;;;28.30;38.80;;;;;;20830011;28;20216;-67
2022/06/16 17:03:36;;;;;;;3.10;2.60;;;27.90;39.80;;;;;;20828636;28;20291;-67
2022/06/16 17:13:38;;;;;;;8.10;3.00;;;27.70;40.30;;;;;;20830115;28;20259;-67
2022/06/16 17:23:40;;;;;;;4.63;2.30;;;27.60;40.70;;;;;;20828807;28;20236;-68
2022/06/16 17:33:43;;;;;;;9.83;2.87;;;27.40;40.70;;;;;;20828716;28;20257;-69
2022/06/16 17:43:48;;;;;;;4.38;2.53;;;27.20;40.70;;;;;;20837628;28;20287;-68
2022/06/16 18:04:10;;;;;;;2.00;1.83;;;27.70;39.70;;;;;;20842283;28;20737;-70
2022/06/16 18:14:17;;;;;;;4.20;2.87;;;27.60;38.90;;;;;;20842751;28;20231;-71
2022/06/16 18:24:28;;;;;;;2.83;2.20;;;26.80;39.10;;;;;;20841706;28;20232;-69
2022/06/16 18:34:35;;;;;;;5.10;2.00;;;26.30;39.20;;;;;;20840499;28;20212;-73
2022/06/16 18:44:38;;;;;;;6.47;2.80;;;26.00;39.40;;;;;;20891130;28;20264;-69
2022/06/16 18:54:45;;;;;;;3.73;2.50;;;25.60;39.60;;;;;;20847385;28;20215;-72
2022/06/16 19:04:49;;;;;;;4.53;2.43;;;25.30;40.00;;;;;;20837964;28;20232;-72
2022/06/16 19:14:56;;;;;;;5.47;2.80;;;25.00;40.50;;;;;;20840176;28;20212;-69
2022/06/16 19:24:58;;;;;;;6.07;3.63;;;24.80;40.90;;;;;;20840839;28;20240;-70
2022/06/16 19:35:05;;;;;;;4.97;2.90;;;24.50;41.00;;;;;;20836364;28;20204;-67
2022/06/16 19:55:39;;;;;;;4.50;2.20;;;24.10;41.60;;;;;;20834205;28;20208;-68
2022/06/16 20:05:44;;;;;;;2.63;2.20;;;23.90;41.90;;;;;;20830767;28;20728;-67
2022/06/16 20:15:47;;;;;;;2.60;2.03;;;23.70;42.40;;;;;;20831911;28;20270;-67
2022/06/16 20:25:53;;;;;;;4.80;2.10;;;23.50;43.50;;;;;;20830522;28;20287;-70
2022/06/16 20:35:55;;;;;;;4.70;2.70;;;23.30;44.40;;;;;;20830406;28;20209;-69
2022/06/16 20:46:01;;;;;;;4.23;2.67;;;23.10;45.40;;;;;;20829091;28;20247;-72
2022/06/16 20:56:04;;;;;;;3.83;2.27;;;22.90;46.30;;;;;;20828906;28;20207;-67
2022/06/16 21:06:09;;;;;;;5.10;2.30;;;22.70;47.30;;;;;;20827084;28;20236;-74
2022/06/16 21:16:11;;;;;;;7.77;2.13;;;22.60;48.20;;;;;;20836238;28;20302;-69
2022/06/16 21:26:14;;;;;;;5.10;3.00;;;22.50;48.70;;;;;;20846400;28;20243;-72
2022/06/16 21:36:20;;;;;;;2.77;2.00;;;22.40;49.10;;;;;;20844553;28;20204;-67
2022/06/16 21:46:23;;;;;;;3.83;2.00;;;22.20;49.60;;;;;;20847043;28;20272;-67
2022/06/16 21:56:25;;;;;;;3.70;2.00;;;22.10;50.00;;;;;;20849553;28;20653;-67
2022/06/16 22:06:28;;;;;;;2.77;2.00;;;21.90;50.70;;;;;;20842835;28;20237;-69
2022/06/16 22:16:32;;;;;;;2.67;1.67;;;21.70;51.30;;;;;;20842125;28;20635;-67
2022/06/16 22:26:35;;;;;;;3.13;1.90;;;21.60;51.40;;;;;;20842203;28;20263;-70
2022/06/16 22:36:40;;;;;;;4.03;1.70;;;21.50;51.60;;;;;;20841248;28;20216;-69
2022/06/16 22:46:46;;;;;;;2.57;2.00;;;21.30;52.00;;;;;;20840084;28;20240;-71
2022/06/16 22:56:47;;;;;;;3.47;1.70;;;21.20;52.30;;;;;;20840657;28;20207;-67
2022/06/16 23:06:52;;;;;;;5.60;1.90;;;20.90;52.60;;;;;;20838848;28;20243;-71
2022/06/16 23:16:56;;;;;;;2.97;2.03;;;20.70;53.20;;;;;;20837830;28;20219;-69
2022/06/16 23:26:58;;;;;;;3.37;2.00;;;20.60;53.50;;;;;;20837035;28;20231;-67
2022/06/16 23:37:01;;;;;;;2.23;1.70;;;20.50;53.80;;;;;;20836096;28;20211;-72
2022/06/16 23:47:04;;;;;;;2.77;1.63;;;20.30;54.10;;;;;;20863092;28;20246;-73
2022/06/16 23:57:12;;;;;;;2.60;1.50;;;20.10;54.10;;;;;;20852768;28;20219;-72
